createdAt,value
2023-03-14T00:05:09.406Z,1.27
2023-03-14T00:10:15.748Z,1.48
2023-03-14T00:15:21.771Z,1.70
2023-03-14T00:20:31.279Z,1.20
2023-03-14T00:25:37.592Z,1.30
2023-03-14T00:30:49.269Z,1.63
2023-03-14T00:41:06.102Z,1.67
2023-03-14T00:46:22.390Z,1.63
2023-03-14T00:51:31.660Z,1.52
2023-03-14T00:56:42.326Z,2.10
2023-03-14T01:01:50.109Z,1.30
2023-03-14T01:06:58.299Z,1.40
2023-03-14T01:12:05.886Z,1.50
2023-03-14T01:17:11.073Z,1.40
2023-03-14T01:22:25.550Z,1.20
2023-03-14T01:27:42.939Z,1.42
2023-03-14T01:32:53.263Z,1.83
2023-03-14T01:38:02.591Z,1.80
2023-03-14T01:43:16.401Z,1.50
2023-03-14T01:48:57.973Z,1.48
2023-03-14T01:54:07.925Z,1.77
2023-03-14T01:59:18.968Z,1.40
2023-03-14T02:04:22.531Z,1.10
2023-03-14T02:09:31.967Z,1.50
2023-03-14T02:14:38.984Z,1.00
2023-03-14T02:20:09.637Z,1.30
2023-03-14T02:25:19.129Z,0.98
2023-03-14T02:30:29.562Z,1.08
2023-03-14T02:35:35.174Z,1.50
2023-03-14T02:40:44.169Z,1.47
2023-03-14T02:46:00.447Z,1.58
2023-03-14T02:56:30.334Z,1.33
2023-03-14T03:01:38.137Z,1.23
2023-03-14T03:06:48.087Z,1.23
2023-03-14T03:11:53.762Z,1.10
2023-03-14T03:17:16.562Z,1.42
2023-03-14T03:27:50.429Z,0.77
2023-03-14T03:33:11.024Z,0.70
2023-03-14T03:38:22.698Z,1.00
2023-03-14T03:43:29.892Z,0.60
2023-03-14T03:48:37.512Z,0.80
2023-03-14T03:53:53.219Z,1.17
2023-03-14T03:59:08.966Z,0.80
2023-03-14T04:04:18.755Z,1.10
2023-03-14T04:09:39.159Z,0.80
2023-03-14T04:15:12.893Z,1.40
2023-03-14T04:20:29.934Z,1.02
2023-03-14T04:25:49.089Z,0.63
2023-03-14T04:31:29.924Z,0.50
2023-03-14T04:36:40.446Z,0.50
2023-03-14T04:41:52.596Z,1.00
2023-03-14T04:46:58.770Z,0.70
2023-03-14T04:52:11.412Z,0.60
2023-03-14T04:57:19.744Z,0.52
2023-03-14T05:02:56.950Z,0.80
2023-03-14T05:08:26.603Z,1.15
2023-03-14T05:13:58.101Z,1.13
2023-03-14T05:19:17.943Z,0.80
2023-03-14T05:24:42.454Z,1.15
2023-03-14T05:30:07.629Z,0.90
2023-03-14T05:35:26.807Z,0.85
2023-03-14T05:40:47.036Z,0.80
2023-03-14T05:46:16.727Z,0.70
2023-03-14T05:51:37.401Z,1.00
2023-03-14T05:57:04.609Z,0.60
2023-03-14T06:02:17.490Z,0.73
2023-03-14T06:07:47.670Z,1.02
2023-03-14T06:13:04.253Z,1.00
2023-03-14T06:18:23.394Z,0.77
2023-03-14T06:23:28.565Z,0.80
2023-03-14T06:28:48.316Z,0.88
2023-03-14T06:33:56.315Z,0.70
2023-03-14T06:39:16.617Z,0.75
2023-03-14T06:44:31.939Z,0.50
2023-03-14T06:49:39.038Z,0.82
2023-03-14T06:54:46.557Z,0.70
2023-03-14T07:00:00.648Z,0.63
2023-03-14T07:05:23.825Z,0.85
2023-03-14T07:10:37.953Z,0.60
2023-03-14T07:15:52.320Z,0.75
2023-03-14T07:20:56.138Z,0.82
2023-03-14T07:26:03.424Z,0.40
2023-03-14T07:31:26.481Z,0.20
2023-03-14T07:36:32.033Z,1.08
2023-03-14T07:41:42.982Z,0.50
2023-03-14T07:47:15.234Z,0.63
2023-03-14T07:52:23.112Z,0.52
2023-03-14T07:57:31.791Z,0.47
2023-03-14T08:02:40.121Z,0.63
2023-03-14T08:07:47.722Z,0.40
2023-03-14T08:12:58.241Z,0.50
2023-03-14T08:18:04.421Z,0.57
2023-03-14T08:23:11.932Z,0.30
2023-03-14T08:28:17.883Z,0.30
2023-03-14T08:33:28.211Z,0.43
2023-03-14T08:38:40.339Z,0.70
2023-03-14T08:50:08.653Z,0.40
2023-03-14T08:55:19.752Z,0.40
2023-03-14T09:00:29.108Z,0.40
2023-03-14T09:05:36.284Z,0.45
2023-03-14T09:10:39.645Z,0.20
2023-03-14T09:15:43.924Z,0.40
2023-03-14T09:20:49.200Z,0.60
2023-03-14T09:25:56.943Z,0.30
2023-03-14T09:31:00.322Z,0.60
2023-03-14T09:36:05.143Z,0.43
2023-03-14T09:41:23.167Z,0.50
2023-03-14T09:46:26.497Z,0.50
2023-03-14T09:51:32.793Z,0.50
2023-03-14T09:56:36.392Z,0.32
2023-03-14T10:01:39.581Z,0.57
2023-03-14T10:06:44.101Z,0.28
2023-03-14T10:11:47.450Z,0.10
2023-03-14T10:16:51.019Z,0.20
2023-03-14T10:21:58.041Z,0.10
2023-03-14T10:27:03.426Z,0.10
2023-03-14T10:32:34.194Z,0.20
2023-03-14T10:37:39.203Z,0.20
2023-03-14T10:42:45.928Z,0.30
2023-03-14T10:53:13.303Z,0.40
2023-03-14T10:58:22.494Z,0.70
2023-03-14T11:03:26.363Z,0.70
2023-03-14T11:08:33.940Z,0.70
2023-03-14T11:13:39.337Z,0.80
2023-03-14T11:19:03.273Z,0.70
2023-03-14T11:24:21.612Z,0.45
2023-03-14T11:29:28.386Z,0.50
2023-03-14T11:34:34.620Z,0.68
2023-03-14T11:39:42.741Z,0.82
2023-03-14T11:44:49.243Z,0.75
2023-03-14T11:49:54.151Z,1.23
2023-03-14T11:55:00.263Z,0.93
2023-03-14T12:00:05.699Z,0.80
2023-03-14T12:05:45.624Z,1.08
2023-03-14T12:10:51.995Z,1.05
2023-03-14T12:15:57.051Z,1.10
2023-03-14T12:21:01.859Z,0.85
2023-03-14T12:26:18.206Z,0.70
2023-03-14T12:31:43.694Z,0.80
2023-03-14T12:37:00.316Z,1.02
2023-03-14T12:42:06.407Z,1.10
2023-03-14T12:47:43.280Z,0.90
2023-03-14T12:52:52.877Z,0.50
2023-03-14T13:03:04.025Z,0.70
2023-03-14T13:08:08.725Z,1.25
2023-03-14T13:13:21.018Z,0.70
2023-03-14T13:18:29.523Z,1.00
2023-03-14T13:23:33.783Z,0.82
2023-03-14T13:28:39.279Z,0.50
2023-03-14T13:33:45.489Z,0.60
2023-03-14T13:38:48.851Z,0.47
2023-03-14T13:43:53.372Z,0.70
2023-03-14T13:48:59.555Z,0.75
2023-03-14T13:54:04.175Z,0.50
2023-03-14T13:59:26.909Z,0.60
2023-03-14T14:04:31.723Z,0.57
2023-03-14T14:09:38.956Z,0.50
2023-03-14T14:14:44.969Z,0.70
2023-03-14T14:19:48.132Z,0.70
2023-03-14T14:24:52.695Z,0.70
2023-03-14T14:30:01.995Z,0.60
2023-03-14T14:40:11.675Z,0.60
2023-03-14T14:45:19.105Z,0.50
2023-03-14T14:50:29.962Z,0.38
2023-03-14T14:55:35.050Z,0.90
2023-03-14T15:00:47.549Z,0.90
2023-03-14T15:05:53.382Z,0.90
2023-03-14T15:10:57.015Z,0.63
2023-03-14T15:16:01.827Z,0.55
2023-03-14T15:21:05.313Z,0.70
2023-03-14T15:26:13.724Z,0.68
2023-03-14T15:31:20.645Z,0.50
2023-03-14T15:36:25.462Z,0.70
2023-03-14T15:41:29.578Z,0.70
2023-03-14T15:46:38.032Z,0.40
2023-03-14T15:51:41.196Z,0.82
2023-03-14T15:56:44.416Z,0.68
2023-03-14T16:01:49.735Z,0.77
2023-03-14T16:06:53.136Z,0.68
2023-03-14T16:11:56.275Z,0.50
2023-03-14T16:17:02.287Z,0.60
2023-03-14T16:22:06.084Z,0.40
2023-03-14T16:27:09.917Z,0.38
2023-03-14T16:32:16.256Z,0.57
2023-03-14T16:37:21.523Z,0.60
2023-03-14T16:42:27.724Z,0.47
2023-03-14T16:47:32.411Z,0.57
2023-03-14T16:52:35.582Z,0.90
2023-03-14T16:57:39.110Z,0.80
2023-03-14T17:02:44.144Z,0.80
2023-03-14T17:07:47.344Z,0.90
2023-03-14T17:12:50.651Z,0.80
2023-03-14T17:17:55.475Z,0.70
2023-03-14T17:22:59.229Z,1.33
2023-03-14T17:28:02.411Z,0.90
2023-03-14T17:33:07.806Z,1.05
2023-03-14T17:38:11.209Z,1.05
2023-03-14T17:43:19.126Z,0.93
2023-03-14T17:48:24.051Z,1.00
2023-03-14T17:53:27.384Z,1.00
2023-03-14T17:58:34.375Z,1.27
2023-03-14T18:03:39.601Z,0.85
2023-03-14T18:08:44.194Z,2.05
2023-03-14T18:13:47.599Z,1.15
2023-03-14T18:18:53.999Z,1.02
2023-03-14T18:23:57.454Z,1.23
2023-03-14T18:29:01.599Z,1.27
2023-03-14T18:34:06.655Z,1.17
2023-03-14T18:39:10.601Z,1.35
2023-03-14T18:44:13.904Z,1.30
2023-03-14T18:49:20.713Z,1.83
2023-03-14T18:54:24.394Z,1.70
2023-03-14T18:59:28.056Z,1.60
2023-03-14T19:04:33.082Z,1.23
2023-03-14T19:09:36.336Z,1.70
2023-03-14T19:14:40.344Z,2.00
2023-03-14T19:19:45.276Z,1.50
2023-03-14T19:24:48.493Z,1.83
2023-03-14T19:29:54.046Z,1.52
2023-03-14T19:34:59.611Z,2.22
2023-03-14T19:40:04.158Z,1.63
2023-03-14T19:45:11.220Z,2.25
2023-03-14T19:50:15.992Z,2.10
2023-03-14T19:55:19.454Z,2.42
2023-03-14T20:00:23.319Z,2.88
2023-03-14T20:05:28.248Z,2.47
2023-03-14T20:10:32.566Z,2.60
2023-03-14T20:15:36.483Z,2.42
2023-03-14T20:20:42.728Z,2.70
2023-03-14T20:25:46.979Z,2.60
2023-03-14T20:30:50.151Z,3.00
2023-03-14T20:35:58.294Z,3.15
2023-03-14T20:41:01.841Z,2.70
2023-03-14T20:46:05.558Z,2.60
2023-03-14T20:51:12.330Z,2.65
2023-03-14T20:56:16.364Z,2.80
2023-03-14T21:01:21.166Z,3.08
2023-03-14T21:06:26.300Z,2.60
2023-03-14T21:11:29.954Z,3.05
2023-03-14T21:16:33.949Z,3.15
2023-03-14T21:21:38.799Z,2.50
2023-03-14T21:26:42.909Z,3.03
2023-03-14T21:31:47.187Z,2.95
2023-03-14T21:36:52.191Z,3.08
2023-03-14T21:41:56.114Z,2.92
2023-03-14T21:47:01.849Z,2.70
2023-03-14T21:52:08.968Z,2.22
2023-03-14T21:57:14.706Z,2.42
2023-03-14T22:02:19.040Z,1.95
2023-03-14T22:07:51.092Z,2.35
2023-03-14T22:12:56.126Z,2.50
2023-03-14T22:17:59.467Z,2.28
2023-03-14T22:23:04.550Z,2.63
2023-03-14T22:28:08.662Z,2.60
2023-03-14T22:33:14.685Z,2.55
2023-03-14T22:38:19.917Z,2.80
2023-03-14T22:43:23.609Z,2.83
2023-03-14T22:48:27.012Z,2.58
2023-03-14T22:53:31.816Z,2.45
2023-03-14T22:58:35.630Z,2.70
2023-03-14T23:03:38.814Z,2.33
2023-03-14T23:08:43.637Z,2.47
2023-03-14T23:13:48.483Z,2.10
2023-03-14T23:18:51.970Z,2.13
2023-03-14T23:23:56.692Z,2.67
2023-03-14T23:29:00.972Z,2.40
2023-03-14T23:34:04.546Z,2.35
2023-03-14T23:39:09.593Z,2.63
2023-03-14T23:44:13.896Z,2.45
2023-03-14T23:49:17.308Z,2.85
2023-03-14T23:54:22.452Z,2.20
2023-03-14T23:59:26.342Z,2.53
